sensor_id;sensor_type;location;lat;lon;timestamp;temperature;humidity
3334;DHT22;1679;50.392;8.008;2023-05-19T00:01:11;9.70;99.90
3334;DHT22;1679;50.392;8.008;2023-05-19T00:03:52;9.70;99.90
3334;DHT22;1679;50.392;8.008;2023-05-19T00:06:22;9.60;99.90
3334;DHT22;1679;50.392;8.008;2023-05-19T00:08:53;9.50;99.90
3334;DHT22;1679;50.392;8.008;2023-05-19T00:11:22;9.40;99.90
3334;DHT22;1679;50.392;8.008;2023-05-19T00:13:48;9.30;99.90
3334;DHT22;1679;50.392;8.008;2023-05-19T00:16:15;9.20;99.90
3334;DHT22;1679;50.392;8.008;2023-05-19T00:18:43;9.00;99.90
3334;DHT22;1679;50.392;8.008;2023-05-19T00:21:08;8.90;99.90
3334;DHT22;1679;50.392;8.008;2023-05-19T00:23:34;8.80;99.90
3334;DHT22;1679;50.392;8.008;2023-05-19T00:26:00;8.70;99.90
3334;DHT22;1679;50.392;8.008;2023-05-19T00:28:25;8.70;99.90
3334;DHT22;1679;50.392;8.008;2023-05-19T00:30:51;8.70;99.90
3334;DHT22;1679;50.392;8.008;2023-05-19T00:33:16;8.60;99.90
3334;DHT22;1679;50.392;8.008;2023-05-19T00:35:42;8.60;99.90
3334;DHT22;1679;50.392;8.008;2023-05-19T00:38:08;8.60;99.90
3334;DHT22;1679;50.392;8.008;2023-05-19T00:40:34;8.50;99.90
3334;DHT22;1679;50.392;8.008;2023-05-19T00:43:00;8.40;99.90
3334;DHT22;1679;50.392;8.008;2023-05-19T00:45:27;8.40;99.90
3334;DHT22;1679;50.392;8.008;2023-05-19T00:47:53;8.30;99.90
3334;DHT22;1679;50.392;8.008;2023-05-19T00:50:18;8.40;99.90
3334;DHT22;1679;50.392;8.008;2023-05-19T00:52:44;8.40;99.90
3334;DHT22;1679;50.392;8.008;2023-05-19T00:55:09;8.30;99.90
3334;DHT22;1679;50.392;8.008;2023-05-19T00:57:36;8.30;99.90
3334;DHT22;1679;50.392;8.008;2023-05-19T01:00:02;8.30;99.90
3334;DHT22;1679;50.392;8.008;2023-05-19T01:02:29;8.30;99.90
3334;DHT22;1679;50.392;8.008;2023-05-19T01:04:56;8.30;99.90
3334;DHT22;1679;50.392;8.008;2023-05-19T01:07:22;8.30;99.90
3334;DHT22;1679;50.392;8.008;2023-05-19T01:09:50;8.20;99.90
3334;DHT22;1679;50.392;8.008;2023-05-19T01:12:16;8.20;99.90
3334;DHT22;1679;50.392;8.008;2023-05-19T01:14:42;8.20;99.90
3334;DHT22;1679;50.392;8.008;2023-05-19T01:19:56;8.10;99.90
3334;DHT22;1679;50.392;8.008;2023-05-19T01:31:24;8.00;99.90
3334;DHT22;1679;50.392;8.008;2023-05-19T01:33:52;7.90;99.90
3334;DHT22;1679;50.392;8.008;2023-05-19T01:36:20;7.90;99.90
3334;DHT22;1679;50.392;8.008;2023-05-19T01:38:51;7.90;99.90
3334;DHT22;1679;50.392;8.008;2023-05-19T01:41:20;7.90;99.90
3334;DHT22;1679;50.392;8.008;2023-05-19T01:43:47;7.90;99.90
3334;DHT22;1679;50.392;8.008;2023-05-19T01:46:13;7.90;99.90
3334;DHT22;1679;50.392;8.008;2023-05-19T01:48:40;7.80;99.90
3334;DHT22;1679;50.392;8.008;2023-05-19T01:51:05;7.80;99.90
3334;DHT22;1679;50.392;8.008;2023-05-19T01:53:31;7.80;99.90
3334;DHT22;1679;50.392;8.008;2023-05-19T01:55:57;7.80;99.90
3334;DHT22;1679;50.392;8.008;2023-05-19T01:58:45;7.80;99.90
3334;DHT22;1679;50.392;8.008;2023-05-19T02:01:22;7.80;99.90
3334;DHT22;1679;50.392;8.008;2023-05-19T02:04:17;7.80;99.90
3334;DHT22;1679;50.392;8.008;2023-05-19T02:07:25;7.70;99.90
3334;DHT22;1679;50.392;8.008;2023-05-19T02:10:04;7.60;99.90
3334;DHT22;1679;50.392;8.008;2023-05-19T02:12:36;7.60;99.90
3334;DHT22;1679;50.392;8.008;2023-05-19T02:15:26;7.50;99.90
3334;DHT22;1679;50.392;8.008;2023-05-19T02:17:54;7.50;99.90
3334;DHT22;1679;50.392;8.008;2023-05-19T02:20:24;7.40;99.90
3334;DHT22;1679;50.392;8.008;2023-05-19T02:22:50;7.30;99.90
3334;DHT22;1679;50.392;8.008;2023-05-19T02:25:16;7.30;99.90
3334;DHT22;1679;50.392;8.008;2023-05-19T02:27:41;7.30;99.90
3334;DHT22;1679;50.392;8.008;2023-05-19T02:30:08;7.20;99.90
3334;DHT22;1679;50.392;8.008;2023-05-19T02:32:34;7.20;99.90
3334;DHT22;1679;50.392;8.008;2023-05-19T02:35:01;7.20;99.90
3334;DHT22;1679;50.392;8.008;2023-05-19T02:37:27;7.20;99.90
3334;DHT22;1679;50.392;8.008;2023-05-19T02:39:53;7.20;99.90
3334;DHT22;1679;50.392;8.008;2023-05-19T02:42:19;7.20;99.90
3334;DHT22;1679;50.392;8.008;2023-05-19T02:44:45;7.20;99.90
3334;DHT22;1679;50.392;8.008;2023-05-19T02:47:11;7.20;99.90
3334;DHT22;1679;50.392;8.008;2023-05-19T02:49:38;7.20;99.90
3334;DHT22;1679;50.392;8.008;2023-05-19T02:52:04;7.20;99.90
3334;DHT22;1679;50.392;8.008;2023-05-19T02:54:31;7.20;99.90
3334;DHT22;1679;50.392;8.008;2023-05-19T02:56:57;7.20;99.90
3334;DHT22;1679;50.392;8.008;2023-05-19T02:59:23;7.10;99.90
3334;DHT22;1679;50.392;8.008;2023-05-19T03:01:51;7.10;99.90
3334;DHT22;1679;50.392;8.008;2023-05-19T03:04:17;7.10;99.90
3334;DHT22;1679;50.392;8.008;2023-05-19T03:06:45;7.00;99.90
3334;DHT22;1679;50.392;8.008;2023-05-19T03:09:11;6.90;99.90
3334;DHT22;1679;50.392;8.008;2023-05-19T03:11:38;6.90;99.90
3334;DHT22;1679;50.392;8.008;2023-05-19T03:14:04;6.80;99.90
3334;DHT22;1679;50.392;8.008;2023-05-19T03:16:29;6.80;99.90
3334;DHT22;1679;50.392;8.008;2023-05-19T03:18:55;6.90;99.90
3334;DHT22;1679;50.392;8.008;2023-05-19T03:21:21;6.90;99.90
3334;DHT22;1679;50.392;8.008;2023-05-19T03:23:46;6.90;99.90
3334;DHT22;1679;50.392;8.008;2023-05-19T03:26:12;6.90;99.90
3334;DHT22;1679;50.392;8.008;2023-05-19T03:28:37;6.90;99.90
3334;DHT22;1679;50.392;8.008;2023-05-19T03:31:03;6.90;99.90
3334;DHT22;1679;50.392;8.008;2023-05-19T03:33:28;6.90;99.90
3334;DHT22;1679;50.392;8.008;2023-05-19T03:35:57;6.90;99.90
3334;DHT22;1679;50.392;8.008;2023-05-19T03:38:23;6.80;99.90
3334;DHT22;1679;50.392;8.008;2023-05-19T03:40:48;6.70;99.90
3334;DHT22;1679;50.392;8.008;2023-05-19T03:43:14;6.70;99.90
3334;DHT22;1679;50.392;8.008;2023-05-19T03:45:40;6.70;99.90
3334;DHT22;1679;50.392;8.008;2023-05-19T03:48:06;6.70;99.90
3334;DHT22;1679;50.392;8.008;2023-05-19T03:50:32;6.70;99.90
3334;DHT22;1679;50.392;8.008;2023-05-19T03:52:58;6.60;99.90
3334;DHT22;1679;50.392;8.008;2023-05-19T03:55:24;6.70;99.90
3334;DHT22;1679;50.392;8.008;2023-05-19T03:57:50;6.70;99.90
3334;DHT22;1679;50.392;8.008;2023-05-19T04:00:17;6.80;99.90
3334;DHT22;1679;50.392;8.008;2023-05-19T04:02:44;6.80;99.90
3334;DHT22;1679;50.392;8.008;2023-05-19T04:05:09;6.70;99.90
3334;DHT22;1679;50.392;8.008;2023-05-19T04:07:35;6.70;99.90
3334;DHT22;1679;50.392;8.008;2023-05-19T04:10:03;6.70;99.90
3334;DHT22;1679;50.392;8.008;2023-05-19T04:12:29;6.80;99.90
3334;DHT22;1679;50.392;8.008;2023-05-19T04:14:55;6.80;99.90
3334;DHT22;1679;50.392;8.008;2023-05-19T04:17:20;6.80;99.90
3334;DHT22;1679;50.392;8.008;2023-05-19T04:19:47;6.90;99.90
3334;DHT22;1679;50.392;8.008;2023-05-19T04:22:13;6.90;99.90
3334;DHT22;1679;50.392;8.008;2023-05-19T04:24:40;7.00;99.90
3334;DHT22;1679;50.392;8.008;2023-05-19T04:27:06;7.10;99.90
3334;DHT22;1679;50.392;8.008;2023-05-19T04:29:36;7.10;99.90
3334;DHT22;1679;50.392;8.008;2023-05-19T04:32:04;7.20;99.90
3334;DHT22;1679;50.392;8.008;2023-05-19T04:34:35;7.30;99.90
3334;DHT22;1679;50.392;8.008;2023-05-19T04:37:06;7.30;99.90
3334;DHT22;1679;50.392;8.008;2023-05-19T04:39:31;7.40;99.90
3334;DHT22;1679;50.392;8.008;2023-05-19T04:41:58;7.50;99.90
3334;DHT22;1679;50.392;8.008;2023-05-19T04:44:24;7.50;99.90
3334;DHT22;1679;50.392;8.008;2023-05-19T04:46:50;7.60;99.90
3334;DHT22;1679;50.392;8.008;2023-05-19T04:49:18;7.60;99.90
3334;DHT22;1679;50.392;8.008;2023-05-19T04:51:44;7.70;99.90
3334;DHT22;1679;50.392;8.008;2023-05-19T04:54:10;7.80;99.90
3334;DHT22;1679;50.392;8.008;2023-05-19T04:56:36;7.80;99.90
3334;DHT22;1679;50.392;8.008;2023-05-19T04:59:02;7.90;99.90
3334;DHT22;1679;50.392;8.008;2023-05-19T05:01:27;7.90;99.90
3334;DHT22;1679;50.392;8.008;2023-05-19T05:03:55;8.00;99.90
3334;DHT22;1679;50.392;8.008;2023-05-19T05:06:23;8.10;99.90
3334;DHT22;1679;50.392;8.008;2023-05-19T05:08:48;8.10;99.90
3334;DHT22;1679;50.392;8.008;2023-05-19T05:11:15;8.20;99.90
3334;DHT22;1679;50.392;8.008;2023-05-19T05:13:41;8.30;99.90
3334;DHT22;1679;50.392;8.008;2023-05-19T05:16:07;8.30;99.90
3334;DHT22;1679;50.392;8.008;2023-05-19T05:18:33;8.30;99.90
3334;DHT22;1679;50.392;8.008;2023-05-19T05:21:01;8.40;99.90
3334;DHT22;1679;50.392;8.008;2023-05-19T05:23:27;8.50;99.90
3334;DHT22;1679;50.392;8.008;2023-05-19T05:25:53;8.50;99.90
3334;DHT22;1679;50.392;8.008;2023-05-19T05:28:19;8.50;99.90
3334;DHT22;1679;50.392;8.008;2023-05-19T05:30:45;8.50;99.90
3334;DHT22;1679;50.392;8.008;2023-05-19T05:33:10;8.60;99.90
3334;DHT22;1679;50.392;8.008;2023-05-19T05:35:36;8.60;99.90
3334;DHT22;1679;50.392;8.008;2023-05-19T05:38:02;8.70;99.90
3334;DHT22;1679;50.392;8.008;2023-05-19T05:40:28;8.70;99.90
3334;DHT22;1679;50.392;8.008;2023-05-19T05:42:55;8.70;99.90
3334;DHT22;1679;50.392;8.008;2023-05-19T05:45:24;8.80;99.90
3334;DHT22;1679;50.392;8.008;2023-05-19T05:47:50;8.80;99.90
3334;DHT22;1679;50.392;8.008;2023-05-19T05:50:16;8.90;99.90
3334;DHT22;1679;50.392;8.008;2023-05-19T05:52:45;9.00;99.90
3334;DHT22;1679;50.392;8.008;2023-05-19T05:55:12;9.10;99.90
3334;DHT22;1679;50.392;8.008;2023-05-19T05:57:37;9.20;99.90
3334;DHT22;1679;50.392;8.008;2023-05-19T06:00:07;9.20;99.90
3334;DHT22;1679;50.392;8.008;2023-05-19T06:02:41;9.30;99.90
3334;DHT22;1679;50.392;8.008;2023-05-19T06:05:09;9.40;99.90
3334;DHT22;1679;50.392;8.008;2023-05-19T06:07:39;9.50;99.90
3334;DHT22;1679;50.392;8.008;2023-05-19T06:10:05;9.60;99.90
3334;DHT22;1679;50.392;8.008;2023-05-19T06:12:31;9.60;99.90
3334;DHT22;1679;50.392;8.008;2023-05-19T06:14:57;9.70;99.90
3334;DHT22;1679;50.392;8.008;2023-05-19T06:17:25;9.90;99.90
3334;DHT22;1679;50.392;8.008;2023-05-19T06:19:51;10.00;99.90
3334;DHT22;1679;50.392;8.008;2023-05-19T06:22:16;10.10;99.90
3334;DHT22;1679;50.392;8.008;2023-05-19T06:24:42;10.20;99.90
3334;DHT22;1679;50.392;8.008;2023-05-19T06:27:09;10.40;99.90
3334;DHT22;1679;50.392;8.008;2023-05-19T06:29:34;10.50;99.90
3334;DHT22;1679;50.392;8.008;2023-05-19T06:32:02;10.60;99.90
3334;DHT22;1679;50.392;8.008;2023-05-19T06:34:27;10.80;99.90
3334;DHT22;1679;50.392;8.008;2023-05-19T06:36:54;11.00;99.90
3334;DHT22;1679;50.392;8.008;2023-05-19T06:39:19;11.20;99.90
3334;DHT22;1679;50.392;8.008;2023-05-19T06:41:46;11.40;99.90
3334;DHT22;1679;50.392;8.008;2023-05-19T06:44:12;11.30;99.90
3334;DHT22;1679;50.392;8.008;2023-05-19T06:46:38;11.60;99.90
3334;DHT22;1679;50.392;8.008;2023-05-19T06:49:04;11.90;99.90
3334;DHT22;1679;50.392;8.008;2023-05-19T06:51:30;12.20;99.90
3334;DHT22;1679;50.392;8.008;2023-05-19T06:53:55;12.60;99.90
3334;DHT22;1679;50.392;8.008;2023-05-19T06:56:22;13.00;99.90
3334;DHT22;1679;50.392;8.008;2023-05-19T06:58:47;13.30;99.90
3334;DHT22;1679;50.392;8.008;2023-05-19T07:01:13;13.40;99.90
3334;DHT22;1679;50.392;8.008;2023-05-19T07:03:38;13.80;99.90
3334;DHT22;1679;50.392;8.008;2023-05-19T07:06:04;14.30;99.90
3334;DHT22;1679;50.392;8.008;2023-05-19T07:08:29;14.30;99.90
3334;DHT22;1679;50.392;8.008;2023-05-19T07:10:55;14.20;99.90
3334;DHT22;1679;50.392;8.008;2023-05-19T07:13:21;14.20;99.90
3334;DHT22;1679;50.392;8.008;2023-05-19T07:15:46;14.30;99.90
3334;DHT22;1679;50.392;8.008;2023-05-19T07:18:13;14.50;99.90
3334;DHT22;1679;50.392;8.008;2023-05-19T07:20:39;14.90;99.90
3334;DHT22;1679;50.392;8.008;2023-05-19T07:23:05;15.20;99.90
3334;DHT22;1679;50.392;8.008;2023-05-19T07:25:32;15.50;99.90
3334;DHT22;1679;50.392;8.008;2023-05-19T07:27:58;15.80;99.90
3334;DHT22;1679;50.392;8.008;2023-05-19T07:30:26;15.80;99.90
3334;DHT22;1679;50.392;8.008;2023-05-19T07:32:52;16.00;99.90
3334;DHT22;1679;50.392;8.008;2023-05-19T07:35:19;16.10;99.90
3334;DHT22;1679;50.392;8.008;2023-05-19T07:37:47;16.20;99.90
3334;DHT22;1679;50.392;8.008;2023-05-19T07:40:13;16.10;99.90
3334;DHT22;1679;50.392;8.008;2023-05-19T07:42:39;16.50;99.90
3334;DHT22;1679;50.392;8.008;2023-05-19T07:45:05;16.90;99.90
3334;DHT22;1679;50.392;8.008;2023-05-19T07:47:31;17.20;99.90
3334;DHT22;1679;50.392;8.008;2023-05-19T07:49:57;17.20;99.90
3334;DHT22;1679;50.392;8.008;2023-05-19T07:52:24;16.80;99.90
3334;DHT22;1679;50.392;8.008;2023-05-19T07:54:50;16.60;99.90
3334;DHT22;1679;50.392;8.008;2023-05-19T07:57:15;16.70;99.90
3334;DHT22;1679;50.392;8.008;2023-05-19T07:59:43;16.40;99.90
3334;DHT22;1679;50.392;8.008;2023-05-19T08:02:08;16.00;99.90
3334;DHT22;1679;50.392;8.008;2023-05-19T08:04:35;15.80;99.90
3334;DHT22;1679;50.392;8.008;2023-05-19T08:07:01;16.20;99.90
3334;DHT22;1679;50.392;8.008;2023-05-19T08:09:26;16.90;99.90
3334;DHT22;1679;50.392;8.008;2023-05-19T08:11:52;17.60;99.90
3334;DHT22;1679;50.392;8.008;2023-05-19T08:14:19;18.20;99.90
3334;DHT22;1679;50.392;8.008;2023-05-19T08:16:47;18.10;99.90
3334;DHT22;1679;50.392;8.008;2023-05-19T08:19:13;18.10;99.90
3334;DHT22;1679;50.392;8.008;2023-05-19T08:21:39;18.30;99.90
3334;DHT22;1679;50.392;8.008;2023-05-19T08:24:06;18.50;99.90
3334;DHT22;1679;50.392;8.008;2023-05-19T08:26:32;17.80;99.90
3334;DHT22;1679;50.392;8.008;2023-05-19T08:28:57;17.50;99.90
3334;DHT22;1679;50.392;8.008;2023-05-19T08:31:23;17.40;99.90
3334;DHT22;1679;50.392;8.008;2023-05-19T08:33:49;17.50;99.90
3334;DHT22;1679;50.392;8.008;2023-05-19T08:36:15;17.60;99.90
3334;DHT22;1679;50.392;8.008;2023-05-19T08:38:41;17.90;99.90
3334;DHT22;1679;50.392;8.008;2023-05-19T08:41:07;18.00;99.90
3334;DHT22;1679;50.392;8.008;2023-05-19T08:43:33;18.00;99.90
3334;DHT22;1679;50.392;8.008;2023-05-19T08:46:00;18.20;99.90
3334;DHT22;1679;50.392;8.008;2023-05-19T08:48:28;18.40;99.90
3334;DHT22;1679;50.392;8.008;2023-05-19T08:51:13;18.50;99.90
3334;DHT22;1679;50.392;8.008;2023-05-19T08:53:47;19.10;99.90
3334;DHT22;1679;50.392;8.008;2023-05-19T08:56:24;19.50;99.90
3334;DHT22;1679;50.392;8.008;2023-05-19T08:58:53;19.30;99.90
3334;DHT22;1679;50.392;8.008;2023-05-19T09:01:20;19.10;99.90
3334;DHT22;1679;50.392;8.008;2023-05-19T09:03:47;18.90;99.90
3334;DHT22;1679;50.392;8.008;2023-05-19T09:06:15;18.60;99.90
3334;DHT22;1679;50.392;8.008;2023-05-19T09:08:42;18.40;99.90
3334;DHT22;1679;50.392;8.008;2023-05-19T09:11:08;18.10;99.90
3334;DHT22;1679;50.392;8.008;2023-05-19T09:13:34;18.50;99.90
3334;DHT22;1679;50.392;8.008;2023-05-19T09:16:00;18.40;99.90
3334;DHT22;1679;50.392;8.008;2023-05-19T09:18:27;18.40;99.90
3334;DHT22;1679;50.392;8.008;2023-05-19T09:20:57;18.40;99.90
3334;DHT22;1679;50.392;8.008;2023-05-19T09:23:30;18.50;99.90
3334;DHT22;1679;50.392;8.008;2023-05-19T09:26:01;19.10;99.90
3334;DHT22;1679;50.392;8.008;2023-05-19T09:28:30;19.30;99.90
3334;DHT22;1679;50.392;8.008;2023-05-19T09:31:01;19.20;99.90
3334;DHT22;1679;50.392;8.008;2023-05-19T09:33:28;19.40;99.90
3334;DHT22;1679;50.392;8.008;2023-05-19T09:35:54;19.80;99.90
3334;DHT22;1679;50.392;8.008;2023-05-19T09:38:24;19.80;99.90
3334;DHT22;1679;50.392;8.008;2023-05-19T09:40:52;19.70;99.90
3334;DHT22;1679;50.392;8.008;2023-05-19T09:43:17;19.80;99.90
3334;DHT22;1679;50.392;8.008;2023-05-19T09:45:43;19.60;99.90
3334;DHT22;1679;50.392;8.008;2023-05-19T09:48:08;19.50;99.90
3334;DHT22;1679;50.392;8.008;2023-05-19T09:50:34;19.60;99.90
3334;DHT22;1679;50.392;8.008;2023-05-19T09:53:00;19.40;99.90
3334;DHT22;1679;50.392;8.008;2023-05-19T09:55:28;18.80;99.90
3334;DHT22;1679;50.392;8.008;2023-05-19T09:57:54;18.40;99.90
3334;DHT22;1679;50.392;8.008;2023-05-19T10:00:24;18.40;99.90
3334;DHT22;1679;50.392;8.008;2023-05-19T10:02:51;18.80;99.90
3334;DHT22;1679;50.392;8.008;2023-05-19T10:05:19;19.10;99.90
3334;DHT22;1679;50.392;8.008;2023-05-19T10:07:49;19.40;99.90
3334;DHT22;1679;50.392;8.008;2023-05-19T10:10:17;19.20;99.80
3334;DHT22;1679;50.392;8.008;2023-05-19T10:12:45;18.70;99.90
3334;DHT22;1679;50.392;8.008;2023-05-19T10:15:14;18.80;99.90
3334;DHT22;1679;50.392;8.008;2023-05-19T10:17:41;19.30;99.90
3334;DHT22;1679;50.392;8.008;2023-05-19T10:20:15;19.40;99.90
3334;DHT22;1679;50.392;8.008;2023-05-19T10:22:43;19.50;99.90
3334;DHT22;1679;50.392;8.008;2023-05-19T10:25:12;19.40;99.90
3334;DHT22;1679;50.392;8.008;2023-05-19T10:28:02;19.10;99.90
3334;DHT22;1679;50.392;8.008;2023-05-19T10:30:33;19.20;99.90
3334;DHT22;1679;50.392;8.008;2023-05-19T10:33:01;18.80;99.90
3334;DHT22;1679;50.392;8.008;2023-05-19T10:38:23;19.20;99.90
3334;DHT22;1679;50.392;8.008;2023-05-19T10:41:03;19.70;99.90
3334;DHT22;1679;50.392;8.008;2023-05-19T10:46:30;19.40;99.90
3334;DHT22;1679;50.392;8.008;2023-05-19T10:48:56;19.30;99.90
3334;DHT22;1679;50.392;8.008;2023-05-19T10:51:30;18.90;99.90
3334;DHT22;1679;50.392;8.008;2023-05-19T10:53:56;19.00;99.90
3334;DHT22;1679;50.392;8.008;2023-05-19T10:56:30;19.20;99.90
3334;DHT22;1679;50.392;8.008;2023-05-19T10:58:59;19.20;99.90
3334;DHT22;1679;50.392;8.008;2023-05-19T11:01:35;19.10;99.90
3334;DHT22;1679;50.392;8.008;2023-05-19T11:04:09;18.80;99.50
3334;DHT22;1679;50.392;8.008;2023-05-19T11:06:36;18.90;99.90
3334;DHT22;1679;50.392;8.008;2023-05-19T11:09:14;19.10;99.90
3334;DHT22;1679;50.392;8.008;2023-05-19T11:11:51;19.40;99.90
3334;DHT22;1679;50.392;8.008;2023-05-19T11:14:19;19.70;99.90
3334;DHT22;1679;50.392;8.008;2023-05-19T11:16:48;20.10;99.40
3334;DHT22;1679;50.392;8.008;2023-05-19T11:19:27;19.90;98.50
3334;DHT22;1679;50.392;8.008;2023-05-19T11:21:55;19.50;99.90
3334;DHT22;1679;50.392;8.008;2023-05-19T11:24:47;19.60;99.30
3334;DHT22;1679;50.392;8.008;2023-05-19T11:27:31;19.70;99.40
3334;DHT22;1679;50.392;8.008;2023-05-19T11:32:31;20.10;99.10
3334;DHT22;1679;50.392;8.008;2023-05-19T11:35:04;20.10;99.90
3334;DHT22;1679;50.392;8.008;2023-05-19T11:37:34;19.70;98.00
3334;DHT22;1679;50.392;8.008;2023-05-19T11:40:04;19.30;98.70
3334;DHT22;1679;50.392;8.008;2023-05-19T11:42:34;19.20;99.10
3334;DHT22;1679;50.392;8.008;2023-05-19T11:45:00;19.20;99.30
3334;DHT22;1679;50.392;8.008;2023-05-19T11:47:26;19.30;99.50
3334;DHT22;1679;50.392;8.008;2023-05-19T11:49:53;19.30;99.90
3334;DHT22;1679;50.392;8.008;2023-05-19T11:52:23;19.20;99.80
3334;DHT22;1679;50.392;8.008;2023-05-19T11:54:49;19.00;98.20
3334;DHT22;1679;50.392;8.008;2023-05-19T11:57:16;19.00;99.90
3334;DHT22;1679;50.392;8.008;2023-05-19T11:59:42;19.20;99.50
3334;DHT22;1679;50.392;8.008;2023-05-19T12:02:21;19.20;99.60
3334;DHT22;1679;50.392;8.008;2023-05-19T12:04:49;19.30;99.90
3334;DHT22;1679;50.392;8.008;2023-05-19T12:07:16;19.60;99.10
3334;DHT22;1679;50.392;8.008;2023-05-19T12:09:46;19.60;99.30
3334;DHT22;1679;50.392;8.008;2023-05-19T12:12:15;19.70;99.00
3334;DHT22;1679;50.392;8.008;2023-05-19T12:14:41;19.80;98.60
3334;DHT22;1679;50.392;8.008;2023-05-19T12:17:17;19.70;99.00
3334;DHT22;1679;50.392;8.008;2023-05-19T12:19:45;19.30;98.30
3334;DHT22;1679;50.392;8.008;2023-05-19T12:22:13;19.10;99.50
3334;DHT22;1679;50.392;8.008;2023-05-19T12:24:39;19.00;97.40
3334;DHT22;1679;50.392;8.008;2023-05-19T12:29:40;19.40;98.20
3334;DHT22;1679;50.392;8.008;2023-05-19T12:32:08;19.60;98.90
3334;DHT22;1679;50.392;8.008;2023-05-19T12:34:37;19.70;96.70
3334;DHT22;1679;50.392;8.008;2023-05-19T12:37:04;19.60;96.60
3334;DHT22;1679;50.392;8.008;2023-05-19T12:39:30;19.40;99.00
3334;DHT22;1679;50.392;8.008;2023-05-19T12:42:06;19.50;97.70
3334;DHT22;1679;50.392;8.008;2023-05-19T12:44:36;19.40;97.80
3334;DHT22;1679;50.392;8.008;2023-05-19T12:47:03;19.50;98.20
3334;DHT22;1679;50.392;8.008;2023-05-19T12:49:30;19.60;97.80
3334;DHT22;1679;50.392;8.008;2023-05-19T12:51:55;19.40;97.10
3334;DHT22;1679;50.392;8.008;2023-05-19T12:54:21;19.40;99.90
3334;DHT22;1679;50.392;8.008;2023-05-19T12:56:52;19.70;99.40
3334;DHT22;1679;50.392;8.008;2023-05-19T12:59:24;19.80;98.80
3334;DHT22;1679;50.392;8.008;2023-05-19T13:01:57;19.80;99.10
3334;DHT22;1679;50.392;8.008;2023-05-19T13:04:27;19.80;99.90
3334;DHT22;1679;50.392;8.008;2023-05-19T13:06:53;19.70;99.90
3334;DHT22;1679;50.392;8.008;2023-05-19T13:09:20;19.60;99.90
3334;DHT22;1679;50.392;8.008;2023-05-19T13:11:46;19.70;99.90
3334;DHT22;1679;50.392;8.008;2023-05-19T13:14:19;19.80;99.60
3334;DHT22;1679;50.392;8.008;2023-05-19T13:16:45;19.90;99.90
3334;DHT22;1679;50.392;8.008;2023-05-19T13:19:16;20.00;99.90
3334;DHT22;1679;50.392;8.008;2023-05-19T13:21:42;20.10;99.90
3334;DHT22;1679;50.392;8.008;2023-05-19T13:24:08;20.30;99.80
3334;DHT22;1679;50.392;8.008;2023-05-19T13:26:34;20.30;99.90
3334;DHT22;1679;50.392;8.008;2023-05-19T13:29:00;20.60;99.90
3334;DHT22;1679;50.392;8.008;2023-05-19T13:31:26;20.60;99.90
3334;DHT22;1679;50.392;8.008;2023-05-19T13:33:53;20.40;99.90
3334;DHT22;1679;50.392;8.008;2023-05-19T13:36:18;20.00;99.90
3334;DHT22;1679;50.392;8.008;2023-05-19T13:38:44;19.80;99.90
3334;DHT22;1679;50.392;8.008;2023-05-19T13:41:09;19.50;99.90
3334;DHT22;1679;50.392;8.008;2023-05-19T13:43:35;19.30;99.90
3334;DHT22;1679;50.392;8.008;2023-05-19T13:46:00;19.40;99.90
3334;DHT22;1679;50.392;8.008;2023-05-19T13:48:26;19.30;99.90
3334;DHT22;1679;50.392;8.008;2023-05-19T13:50:51;19.40;99.90
3334;DHT22;1679;50.392;8.008;2023-05-19T13:53:19;19.50;99.90
3334;DHT22;1679;50.392;8.008;2023-05-19T13:55:46;19.70;99.90
3334;DHT22;1679;50.392;8.008;2023-05-19T13:58:12;19.90;99.90
3334;DHT22;1679;50.392;8.008;2023-05-19T14:00:40;20.00;99.90
3334;DHT22;1679;50.392;8.008;2023-05-19T14:03:05;20.00;99.90
3334;DHT22;1679;50.392;8.008;2023-05-19T14:05:31;20.00;99.90
3334;DHT22;1679;50.392;8.008;2023-05-19T14:07:57;20.20;99.90
3334;DHT22;1679;50.392;8.008;2023-05-19T14:10:25;20.30;99.90
3334;DHT22;1679;50.392;8.008;2023-05-19T14:12:51;20.30;99.90
3334;DHT22;1679;50.392;8.008;2023-05-19T14:15:18;20.20;99.90
3334;DHT22;1679;50.392;8.008;2023-05-19T14:17:44;20.00;99.90
3334;DHT22;1679;50.392;8.008;2023-05-19T14:20:10;19.80;99.90
3334;DHT22;1679;50.392;8.008;2023-05-19T14:22:35;19.90;99.90
3334;DHT22;1679;50.392;8.008;2023-05-19T14:25:01;20.00;99.90
3334;DHT22;1679;50.392;8.008;2023-05-19T14:27:27;20.10;99.90
3334;DHT22;1679;50.392;8.008;2023-05-19T14:29:52;20.10;99.90
3334;DHT22;1679;50.392;8.008;2023-05-19T14:32:18;20.20;99.90
3334;DHT22;1679;50.392;8.008;2023-05-19T14:34:43;20.30;99.90
3334;DHT22;1679;50.392;8.008;2023-05-19T14:37:09;20.20;99.90
3334;DHT22;1679;50.392;8.008;2023-05-19T14:39:35;20.10;99.90
3334;DHT22;1679;50.392;8.008;2023-05-19T14:42:00;20.10;99.90
3334;DHT22;1679;50.392;8.008;2023-05-19T14:44:30;20.10;99.90
3334;DHT22;1679;50.392;8.008;2023-05-19T14:47:00;19.80;99.90
3334;DHT22;1679;50.392;8.008;2023-05-19T14:49:25;19.90;99.90
3334;DHT22;1679;50.392;8.008;2023-05-19T14:51:51;19.90;99.90
3334;DHT22;1679;50.392;8.008;2023-05-19T14:54:16;20.10;99.90
3334;DHT22;1679;50.392;8.008;2023-05-19T14:56:42;20.40;99.90
3334;DHT22;1679;50.392;8.008;2023-05-19T14:59:09;20.50;99.90
3334;DHT22;1679;50.392;8.008;2023-05-19T15:01:36;20.60;99.90
3334;DHT22;1679;50.392;8.008;2023-05-19T15:04:01;20.30;99.90
3334;DHT22;1679;50.392;8.008;2023-05-19T15:06:26;20.10;99.90
3334;DHT22;1679;50.392;8.008;2023-05-19T15:08:52;19.90;99.90
3334;DHT22;1679;50.392;8.008;2023-05-19T15:11:20;19.70;99.90
3334;DHT22;1679;50.392;8.008;2023-05-19T15:13:46;19.40;99.90
3334;DHT22;1679;50.392;8.008;2023-05-19T15:16:13;19.20;99.90
3334;DHT22;1679;50.392;8.008;2023-05-19T15:18:38;19.10;99.90
3334;DHT22;1679;50.392;8.008;2023-05-19T15:21:05;19.20;99.90
3334;DHT22;1679;50.392;8.008;2023-05-19T15:23:32;19.40;99.90
3334;DHT22;1679;50.392;8.008;2023-05-19T15:25:58;19.50;99.90
3334;DHT22;1679;50.392;8.008;2023-05-19T15:28:23;19.50;99.90
3334;DHT22;1679;50.392;8.008;2023-05-19T15:30:50;19.60;99.90
3334;DHT22;1679;50.392;8.008;2023-05-19T15:33:16;19.90;99.90
3334;DHT22;1679;50.392;8.008;2023-05-19T15:35:41;20.10;99.90
3334;DHT22;1679;50.392;8.008;2023-05-19T15:38:07;20.30;99.90
3334;DHT22;1679;50.392;8.008;2023-05-19T15:40:32;20.20;99.90
3334;DHT22;1679;50.392;8.008;2023-05-19T15:42:58;19.90;99.90
3334;DHT22;1679;50.392;8.008;2023-05-19T15:45:25;19.80;99.90
3334;DHT22;1679;50.392;8.008;2023-05-19T15:47:51;19.50;99.90
3334;DHT22;1679;50.392;8.008;2023-05-19T15:50:16;19.30;99.90
3334;DHT22;1679;50.392;8.008;2023-05-19T15:52:42;19.10;99.90
3334;DHT22;1679;50.392;8.008;2023-05-19T15:55:08;19.20;99.90
3334;DHT22;1679;50.392;8.008;2023-05-19T15:57:33;19.20;99.90
3334;DHT22;1679;50.392;8.008;2023-05-19T16:00:00;19.20;99.90
3334;DHT22;1679;50.392;8.008;2023-05-19T16:02:26;19.30;99.90
3334;DHT22;1679;50.392;8.008;2023-05-19T16:04:51;19.40;99.90
3334;DHT22;1679;50.392;8.008;2023-05-19T16:07:18;19.60;99.90
3334;DHT22;1679;50.392;8.008;2023-05-19T16:09:46;19.60;99.90
3334;DHT22;1679;50.392;8.008;2023-05-19T16:12:12;19.40;99.90
3334;DHT22;1679;50.392;8.008;2023-05-19T16:14:37;19.20;99.90
3334;DHT22;1679;50.392;8.008;2023-05-19T16:17:03;19.10;99.90
3334;DHT22;1679;50.392;8.008;2023-05-19T16:19:29;19.10;99.90
3334;DHT22;1679;50.392;8.008;2023-05-19T16:21:55;19.10;99.90
3334;DHT22;1679;50.392;8.008;2023-05-19T16:24:20;19.20;99.90
3334;DHT22;1679;50.392;8.008;2023-05-19T16:26:46;19.30;99.90
3334;DHT22;1679;50.392;8.008;2023-05-19T16:29:12;19.30;99.90
3334;DHT22;1679;50.392;8.008;2023-05-19T16:31:38;19.30;99.90